sensor_id;sensor_type;location;lat;lon;timestamp;temperature;humidity
43772;HTU21D;59066;54.782;32.024;2023-04-22T00:01:52;10.84;45.73
43772;HTU21D;59066;54.782;32.024;2023-04-22T00:04:20;10.83;45.73
43772;HTU21D;59066;54.782;32.024;2023-04-22T00:06:48;10.89;45.78
43772;HTU21D;59066;54.782;32.024;2023-04-22T00:09:15;10.98;45.64
43772;HTU21D;59066;54.782;32.024;2023-04-22T00:11:43;11.02;45.68
43772;HTU21D;59066;54.782;32.024;2023-04-22T00:14:10;11.10;45.80
43772;HTU21D;59066;54.782;32.024;2023-04-22T00:16:38;11.15;45.76
43772;HTU21D;59066;54.782;32.024;2023-04-22T00:19:06;11.18;45.96
43772;HTU21D;59066;54.782;32.024;2023-04-22T00:21:34;11.13;46.47
43772;HTU21D;59066;54.782;32.024;2023-04-22T00:24:02;11.17;46.62
43772;HTU21D;59066;54.782;32.024;2023-04-22T00:26:29;11.16;46.92
43772;HTU21D;59066;54.782;32.024;2023-04-22T00:28:57;11.12;47.12
43772;HTU21D;59066;54.782;32.024;2023-04-22T00:31:25;11.15;47.22
43772;HTU21D;59066;54.782;32.024;2023-04-22T00:33:52;11.18;47.41
43772;HTU21D;59066;54.782;32.024;2023-04-22T00:36:20;11.22;47.53
43772;HTU21D;59066;54.782;32.024;2023-04-22T00:38:48;11.19;47.77
43772;HTU21D;59066;54.782;32.024;2023-04-22T00:41:19;11.14;48.06
43772;HTU21D;59066;54.782;32.024;2023-04-22T00:43:46;11.03;48.71
43772;HTU21D;59066;54.782;32.024;2023-04-22T00:46:15;10.93;49.41
43772;HTU21D;59066;54.782;32.024;2023-04-22T00:48:44;10.92;49.70
43772;HTU21D;59066;54.782;32.024;2023-04-22T00:51:12;11.04;49.51
43772;HTU21D;59066;54.782;32.024;2023-04-22T00:53:39;11.20;49.11
43772;HTU21D;59066;54.782;32.024;2023-04-22T00:56:07;11.29;48.82
43772;HTU21D;59066;54.782;32.024;2023-04-22T00:58:34;11.30;48.77
43772;HTU21D;59066;54.782;32.024;2023-04-22T01:01:02;11.30;48.88
43772;HTU21D;59066;54.782;32.024;2023-04-22T01:03:30;11.25;49.05
43772;HTU21D;59066;54.782;32.024;2023-04-22T01:05:59;11.18;49.52
43772;HTU21D;59066;54.782;32.024;2023-04-22T01:08:27;11.13;49.94
43772;HTU21D;59066;54.782;32.024;2023-04-22T01:10:57;11.12;50.18
43772;HTU21D;59066;54.782;32.024;2023-04-22T01:13:25;11.11;50.54
43772;HTU21D;59066;54.782;32.024;2023-04-22T01:15:53;11.19;50.42
43772;HTU21D;59066;54.782;32.024;2023-04-22T01:18:22;11.29;50.01
43772;HTU21D;59066;54.782;32.024;2023-04-22T01:20:49;11.37;49.57
43772;HTU21D;59066;54.782;32.024;2023-04-22T01:23:21;11.41;49.73
43772;HTU21D;59066;54.782;32.024;2023-04-22T01:25:48;11.37;49.75
43772;HTU21D;59066;54.782;32.024;2023-04-22T01:28:16;11.30;49.95
43772;HTU21D;59066;54.782;32.024;2023-04-22T01:30:44;11.27;50.19
43772;HTU21D;59066;54.782;32.024;2023-04-22T01:33:12;11.30;50.11
43772;HTU21D;59066;54.782;32.024;2023-04-22T01:35:41;11.23;50.59
43772;HTU21D;59066;54.782;32.024;2023-04-22T01:38:11;11.24;50.50
43772;HTU21D;59066;54.782;32.024;2023-04-22T01:40:39;11.24;50.37
43772;HTU21D;59066;54.782;32.024;2023-04-22T01:43:07;11.20;50.50
43772;HTU21D;59066;54.782;32.024;2023-04-22T01:45:34;11.18;50.86
43772;HTU21D;59066;54.782;32.024;2023-04-22T01:48:03;11.08;51.27
43772;HTU21D;59066;54.782;32.024;2023-04-22T01:50:31;10.86;52.09
43772;HTU21D;59066;54.782;32.024;2023-04-22T01:52:59;10.74;51.78
43772;HTU21D;59066;54.782;32.024;2023-04-22T01:55:27;10.81;51.62
43772;HTU21D;59066;54.782;32.024;2023-04-22T01:57:54;10.94;51.43
43772;HTU21D;59066;54.782;32.024;2023-04-22T02:00:22;11.00;51.27
43772;HTU21D;59066;54.782;32.024;2023-04-22T02:02:49;11.03;51.24
43772;HTU21D;59066;54.782;32.024;2023-04-22T02:05:17;10.99;51.11
43772;HTU21D;59066;54.782;32.024;2023-04-22T02:07:45;10.99;50.82
43772;HTU21D;59066;54.782;32.024;2023-04-22T02:10:15;10.84;50.85
43772;HTU21D;59066;54.782;32.024;2023-04-22T02:12:43;10.54;51.18
43772;HTU21D;59066;54.782;32.024;2023-04-22T02:15:12;10.38;50.94
43772;HTU21D;59066;54.782;32.024;2023-04-22T02:17:41;10.41;50.28
43772;HTU21D;59066;54.782;32.024;2023-04-22T02:20:11;10.55;50.11
43772;HTU21D;59066;54.782;32.024;2023-04-22T02:22:41;10.67;49.35
43772;HTU21D;59066;54.782;32.024;2023-04-22T02:25:11;10.78;48.83
43772;HTU21D;59066;54.782;32.024;2023-04-22T02:27:41;10.75;48.68
43772;HTU21D;59066;54.782;32.024;2023-04-22T02:30:09;10.59;48.93
43772;HTU21D;59066;54.782;32.024;2023-04-22T02:32:36;10.57;48.95
43772;HTU21D;59066;54.782;32.024;2023-04-22T02:35:06;10.66;48.54
43772;HTU21D;59066;54.782;32.024;2023-04-22T02:37:34;10.77;48.19
43772;HTU21D;59066;54.782;32.024;2023-04-22T02:40:02;10.84;48.37
43772;HTU21D;59066;54.782;32.024;2023-04-22T02:42:30;10.92;48.25
43772;HTU21D;59066;54.782;32.024;2023-04-22T02:44:58;10.90;48.45
43772;HTU21D;59066;54.782;32.024;2023-04-22T02:47:25;10.84;48.82
43772;HTU21D;59066;54.782;32.024;2023-04-22T02:49:53;10.77;48.95
43772;HTU21D;59066;54.782;32.024;2023-04-22T02:52:20;10.70;48.90
43772;HTU21D;59066;54.782;32.024;2023-04-22T02:54:48;10.74;48.67
43772;HTU21D;59066;54.782;32.024;2023-04-22T02:57:15;10.74;49.13
43772;HTU21D;59066;54.782;32.024;2023-04-22T02:59:43;10.80;49.40
43772;HTU21D;59066;54.782;32.024;2023-04-22T03:02:13;10.89;49.54
43772;HTU21D;59066;54.782;32.024;2023-04-22T03:04:59;10.86;49.31
43772;HTU21D;59066;54.782;32.024;2023-04-22T03:07:28;10.86;49.52
43772;HTU21D;59066;54.782;32.024;2023-04-22T03:09:56;10.85;49.47
43772;HTU21D;59066;54.782;32.024;2023-04-22T03:12:24;10.79;49.48
43772;HTU21D;59066;54.782;32.024;2023-04-22T03:14:52;10.88;48.50
43772;HTU21D;59066;54.782;32.024;2023-04-22T03:17:21;11.02;48.79
43772;HTU21D;59066;54.782;32.024;2023-04-22T03:19:49;10.98;49.46
43772;HTU21D;59066;54.782;32.024;2023-04-22T03:22:16;10.98;49.77
43772;HTU21D;59066;54.782;32.024;2023-04-22T03:24:44;10.98;50.03
43772;HTU21D;59066;54.782;32.024;2023-04-22T03:27:13;10.96;50.11
43772;HTU21D;59066;54.782;32.024;2023-04-22T03:29:41;11.01;50.07
43772;HTU21D;59066;54.782;32.024;2023-04-22T03:32:08;10.94;50.05
43772;HTU21D;59066;54.782;32.024;2023-04-22T03:34:36;10.97;50.12
43772;HTU21D;59066;54.782;32.024;2023-04-22T03:37:06;11.04;50.13
43772;HTU21D;59066;54.782;32.024;2023-04-22T03:39:34;10.89;50.91
43772;HTU21D;59066;54.782;32.024;2023-04-22T03:42:01;10.88;50.98
43772;HTU21D;59066;54.782;32.024;2023-04-22T03:44:29;11.02;50.63
43772;HTU21D;59066;54.782;32.024;2023-04-22T03:46:56;11.08;50.73
43772;HTU21D;59066;54.782;32.024;2023-04-22T03:49:29;10.87;51.04
43772;HTU21D;59066;54.782;32.024;2023-04-22T03:51:56;10.92;50.83
43772;HTU21D;59066;54.782;32.024;2023-04-22T03:54:25;11.11;50.46
43772;HTU21D;59066;54.782;32.024;2023-04-22T03:56:54;11.12;50.50
43772;HTU21D;59066;54.782;32.024;2023-04-22T03:59:23;11.01;50.40
43772;HTU21D;59066;54.782;32.024;2023-04-22T04:01:51;11.01;48.84
43772;HTU21D;59066;54.782;32.024;2023-04-22T04:04:24;11.12;48.12
43772;HTU21D;59066;54.782;32.024;2023-04-22T04:06:57;11.30;48.06
43772;HTU21D;59066;54.782;32.024;2023-04-22T04:09:26;11.47;47.98
43772;HTU21D;59066;54.782;32.024;2023-04-22T04:11:53;11.45;48.48
43772;HTU21D;59066;54.782;32.024;2023-04-22T04:14:21;11.31;48.06
43772;HTU21D;59066;54.782;32.024;2023-04-22T04:16:50;11.36;47.76
43772;HTU21D;59066;54.782;32.024;2023-04-22T04:19:26;11.36;48.20
43772;HTU21D;59066;54.782;32.024;2023-04-22T04:21:54;11.38;48.22
43772;HTU21D;59066;54.782;32.024;2023-04-22T04:24:23;11.47;49.03
43772;HTU21D;59066;54.782;32.024;2023-04-22T04:26:57;11.58;49.20
43772;HTU21D;59066;54.782;32.024;2023-04-22T04:29:31;11.61;49.55
43772;HTU21D;59066;54.782;32.024;2023-04-22T04:32:07;11.69;49.31
43772;HTU21D;59066;54.782;32.024;2023-04-22T04:34:36;11.72;49.19
43772;HTU21D;59066;54.782;32.024;2023-04-22T04:37:07;11.73;48.99
43772;HTU21D;59066;54.782;32.024;2023-04-22T04:39:58;11.74;48.81
43772;HTU21D;59066;54.782;32.024;2023-04-22T04:42:38;11.79;48.57
43772;HTU21D;59066;54.782;32.024;2023-04-22T04:45:12;11.87;48.47
43772;HTU21D;59066;54.782;32.024;2023-04-22T04:47:40;11.89;48.57
43772;HTU21D;59066;54.782;32.024;2023-04-22T04:50:16;11.99;48.45
43772;HTU21D;59066;54.782;32.024;2023-04-22T04:52:43;12.04;48.23
43772;HTU21D;59066;54.782;32.024;2023-04-22T04:55:11;12.16;47.91
43772;HTU21D;59066;54.782;32.024;2023-04-22T04:57:39;12.31;47.57
43772;HTU21D;59066;54.782;32.024;2023-04-22T05:00:10;12.51;47.20
43772;HTU21D;59066;54.782;32.024;2023-04-22T05:02:40;12.70;46.81
43772;HTU21D;59066;54.782;32.024;2023-04-22T05:05:09;12.84;46.51
43772;HTU21D;59066;54.782;32.024;2023-04-22T05:07:38;12.93;46.26
43772;HTU21D;59066;54.782;32.024;2023-04-22T05:10:07;13.00;45.76
43772;HTU21D;59066;54.782;32.024;2023-04-22T05:12:36;13.06;45.58
43772;HTU21D;59066;54.782;32.024;2023-04-22T05:15:06;13.21;45.12
43772;HTU21D;59066;54.782;32.024;2023-04-22T05:17:35;13.32;44.74
43772;HTU21D;59066;54.782;32.024;2023-04-22T05:20:03;13.48;44.42
43772;HTU21D;59066;54.782;32.024;2023-04-22T05:22:33;13.60;44.11
43772;HTU21D;59066;54.782;32.024;2023-04-22T05:25:01;13.67;43.47
43772;HTU21D;59066;54.782;32.024;2023-04-22T05:27:29;13.80;43.00
43772;HTU21D;59066;54.782;32.024;2023-04-22T05:29:57;13.89;42.44
43772;HTU21D;59066;54.782;32.024;2023-04-22T05:32:30;14.03;42.04
43772;HTU21D;59066;54.782;32.024;2023-04-22T05:34:57;14.17;41.69
43772;HTU21D;59066;54.782;32.024;2023-04-22T05:37:25;14.27;41.41
43772;HTU21D;59066;54.782;32.024;2023-04-22T05:39:54;14.37;41.34
43772;HTU21D;59066;54.782;32.024;2023-04-22T05:42:22;14.42;41.13
43772;HTU21D;59066;54.782;32.024;2023-04-22T05:44:50;14.47;40.93
43772;HTU21D;59066;54.782;32.024;2023-04-22T05:47:17;14.58;40.78
43772;HTU21D;59066;54.782;32.024;2023-04-22T05:49:45;14.67;40.52
43772;HTU21D;59066;54.782;32.024;2023-04-22T05:52:15;14.77;40.49
43772;HTU21D;59066;54.782;32.024;2023-04-22T05:55:00;14.86;40.25
43772;HTU21D;59066;54.782;32.024;2023-04-22T05:57:28;14.92;40.43
43772;HTU21D;59066;54.782;32.024;2023-04-22T05:59:59;14.92;40.56
43772;HTU21D;59066;54.782;32.024;2023-04-22T06:02:27;14.85;40.67
43772;HTU21D;59066;54.782;32.024;2023-04-22T06:04:55;14.83;40.71
43772;HTU21D;59066;54.782;32.024;2023-04-22T06:07:23;14.89;40.78
43772;HTU21D;59066;54.782;32.024;2023-04-22T06:09:51;15.01;40.71
43772;HTU21D;59066;54.782;32.024;2023-04-22T06:12:29;15.08;40.55
43772;HTU21D;59066;54.782;32.024;2023-04-22T06:14:56;15.14;40.48
43772;HTU21D;59066;54.782;32.024;2023-04-22T06:17:24;15.12;40.28
43772;HTU21D;59066;54.782;32.024;2023-04-22T06:19:52;15.03;40.43
43772;HTU21D;59066;54.782;32.024;2023-04-22T06:22:20;15.04;40.30
43772;HTU21D;59066;54.782;32.024;2023-04-22T06:24:48;15.06;40.12
43772;HTU21D;59066;54.782;32.024;2023-04-22T06:27:15;14.98;40.20
43772;HTU21D;59066;54.782;32.024;2023-04-22T06:29:43;14.99;40.28
43772;HTU21D;59066;54.782;32.024;2023-04-22T06:32:11;15.10;40.09
43772;HTU21D;59066;54.782;32.024;2023-04-22T06:34:41;15.07;40.30
43772;HTU21D;59066;54.782;32.024;2023-04-22T06:37:08;15.18;40.29
43772;HTU21D;59066;54.782;32.024;2023-04-22T06:39:36;15.30;40.09
43772;HTU21D;59066;54.782;32.024;2023-04-22T06:42:24;15.45;39.92
43772;HTU21D;59066;54.782;32.024;2023-04-22T06:45:10;15.60;39.53
43772;HTU21D;59066;54.782;32.024;2023-04-22T06:47:58;15.81;39.48
43772;HTU21D;59066;54.782;32.024;2023-04-22T06:50:40;16.02;39.20
43772;HTU21D;59066;54.782;32.024;2023-04-22T06:53:08;16.06;38.97
43772;HTU21D;59066;54.782;32.024;2023-04-22T06:55:36;16.22;38.79
43772;HTU21D;59066;54.782;32.024;2023-04-22T06:58:03;16.31;38.43
43772;HTU21D;59066;54.782;32.024;2023-04-22T07:00:31;16.37;38.26
43772;HTU21D;59066;54.782;32.024;2023-04-22T07:02:59;16.61;37.88
43772;HTU21D;59066;54.782;32.024;2023-04-22T07:05:27;16.85;37.40
43772;HTU21D;59066;54.782;32.024;2023-04-22T07:07:56;17.05;36.52
43772;HTU21D;59066;54.782;32.024;2023-04-22T07:10:25;17.16;35.89
43772;HTU21D;59066;54.782;32.024;2023-04-22T07:13:13;17.21;35.39
43772;HTU21D;59066;54.782;32.024;2023-04-22T07:15:45;17.22;34.99
43772;HTU21D;59066;54.782;32.024;2023-04-22T07:18:12;17.28;34.66
43772;HTU21D;59066;54.782;32.024;2023-04-22T07:20:40;17.30;34.36
43772;HTU21D;59066;54.782;32.024;2023-04-22T07:23:07;17.34;34.11
43772;HTU21D;59066;54.782;32.024;2023-04-22T07:25:35;17.46;33.96
43772;HTU21D;59066;54.782;32.024;2023-04-22T07:28:03;17.64;33.55
43772;HTU21D;59066;54.782;32.024;2023-04-22T07:30:30;17.80;33.25
43772;HTU21D;59066;54.782;32.024;2023-04-22T07:32:58;17.98;32.78
43772;HTU21D;59066;54.782;32.024;2023-04-22T07:35:25;18.12;32.49
43772;HTU21D;59066;54.782;32.024;2023-04-22T07:37:54;18.30;32.09
43772;HTU21D;59066;54.782;32.024;2023-04-22T07:40:22;18.41;31.83
43772;HTU21D;59066;54.782;32.024;2023-04-22T07:42:49;18.50;31.19
43772;HTU21D;59066;54.782;32.024;2023-04-22T07:45:17;18.38;30.23
43772;HTU21D;59066;54.782;32.024;2023-04-22T07:47:45;18.48;29.94
43772;HTU21D;59066;54.782;32.024;2023-04-22T07:50:14;18.50;29.84
43772;HTU21D;59066;54.782;32.024;2023-04-22T07:52:43;18.48;29.15
43772;HTU21D;59066;54.782;32.024;2023-04-22T07:55:11;18.33;28.85
43772;HTU21D;59066;54.782;32.024;2023-04-22T07:57:38;18.17;28.53
43772;HTU21D;59066;54.782;32.024;2023-04-22T08:00:08;18.00;28.38
43772;HTU21D;59066;54.782;32.024;2023-04-22T08:02:39;17.76;28.26
43772;HTU21D;59066;54.782;32.024;2023-04-22T08:05:07;17.65;28.27
43772;HTU21D;59066;54.782;32.024;2023-04-22T08:07:35;17.58;28.07
43772;HTU21D;59066;54.782;32.024;2023-04-22T08:10:03;17.59;27.97
43772;HTU21D;59066;54.782;32.024;2023-04-22T08:12:31;17.49;27.45
43772;HTU21D;59066;54.782;32.024;2023-04-22T08:14:58;17.28;27.15
43772;HTU21D;59066;54.782;32.024;2023-04-22T08:17:26;17.16;27.13
43772;HTU21D;59066;54.782;32.024;2023-04-22T08:19:53;17.13;27.14
43772;HTU21D;59066;54.782;32.024;2023-04-22T08:22:21;17.10;27.10
43772;HTU21D;59066;54.782;32.024;2023-04-22T08:24:50;17.13;26.76
43772;HTU21D;59066;54.782;32.024;2023-04-22T08:27:18;17.24;26.61
43772;HTU21D;59066;54.782;32.024;2023-04-22T08:29:47;17.53;26.49
43772;HTU21D;59066;54.782;32.024;2023-04-22T08:32:14;17.90;26.41
43772;HTU21D;59066;54.782;32.024;2023-04-22T08:34:42;18.10;26.23
43772;HTU21D;59066;54.782;32.024;2023-04-22T08:37:09;18.34;26.18
43772;HTU21D;59066;54.782;32.024;2023-04-22T08:39:39;18.65;26.01
43772;HTU21D;59066;54.782;32.024;2023-04-22T08:42:08;18.77;25.92
43772;HTU21D;59066;54.782;32.024;2023-04-22T08:44:38;19.00;25.80
43772;HTU21D;59066;54.782;32.024;2023-04-22T08:47:06;19.08;25.78
43772;HTU21D;59066;54.782;32.024;2023-04-22T08:49:35;18.93;26.01
43772;HTU21D;59066;54.782;32.024;2023-04-22T08:52:04;18.89;25.97
43772;HTU21D;59066;54.782;32.024;2023-04-22T08:54:31;18.84;25.99
43772;HTU21D;59066;54.782;32.024;2023-04-22T08:57:00;18.66;25.98
43772;HTU21D;59066;54.782;32.024;2023-04-22T08:59:30;18.44;26.09
43772;HTU21D;59066;54.782;32.024;2023-04-22T09:01:58;18.28;26.25
43772;HTU21D;59066;54.782;32.024;2023-04-22T09:04:26;18.12;26.44
43772;HTU21D;59066;54.782;32.024;2023-04-22T09:06:55;18.08;26.39
43772;HTU21D;59066;54.782;32.024;2023-04-22T09:09:26;17.99;26.54
43772;HTU21D;59066;54.782;32.024;2023-04-22T09:11:54;18.04;26.50
43772;HTU21D;59066;54.782;32.024;2023-04-22T09:14:23;17.87;26.47
43772;HTU21D;59066;54.782;32.024;2023-04-22T09:16:52;18.14;26.21
43772;HTU21D;59066;54.782;32.024;2023-04-22T09:19:23;18.25;25.94
43772;HTU21D;59066;54.782;32.024;2023-04-22T09:21:51;18.38;25.95
43772;HTU21D;59066;54.782;32.024;2023-04-22T09:24:20;18.66;25.83
43772;HTU21D;59066;54.782;32.024;2023-04-22T09:26:48;18.98;25.39
43772;HTU21D;59066;54.782;32.024;2023-04-22T09:29:16;19.23;25.03
43772;HTU21D;59066;54.782;32.024;2023-04-22T09:31:48;19.33;24.41
43772;HTU21D;59066;54.782;32.024;2023-04-22T09:34:20;19.57;24.43
43772;HTU21D;59066;54.782;32.024;2023-04-22T09:36:49;19.67;24.43
43772;HTU21D;59066;54.782;32.024;2023-04-22T09:39:17;19.69;24.31
43772;HTU21D;59066;54.782;32.024;2023-04-22T09:41:53;19.52;23.50
43772;HTU21D;59066;54.782;32.024;2023-04-22T09:44:21;19.38;24.24
43772;HTU21D;59066;54.782;32.024;2023-04-22T09:46:49;19.54;24.01
43772;HTU21D;59066;54.782;32.024;2023-04-22T09:49:20;19.39;23.70
43772;HTU21D;59066;54.782;32.024;2023-04-22T09:51:47;19.47;23.82
43772;HTU21D;59066;54.782;32.024;2023-04-22T09:54:22;19.57;23.67
43772;HTU21D;59066;54.782;32.024;2023-04-22T09:56:51;19.66;23.57
43772;HTU21D;59066;54.782;32.024;2023-04-22T10:01:58;19.53;23.24
43772;HTU21D;59066;54.782;32.024;2023-04-22T10:04:27;19.83;23.51
43772;HTU21D;59066;54.782;32.024;2023-04-22T10:06:58;20.05;23.18
43772;HTU21D;59066;54.782;32.024;2023-04-22T10:09:26;20.14;23.18
43772;HTU21D;59066;54.782;32.024;2023-04-22T10:11:55;20.40;23.21
43772;HTU21D;59066;54.782;32.024;2023-04-22T10:14:25;20.62;22.95
43772;HTU21D;59066;54.782;32.024;2023-04-22T10:16:59;20.36;22.36
43772;HTU21D;59066;54.782;32.024;2023-04-22T10:19:35;20.16;22.70
43772;HTU21D;59066;54.782;32.024;2023-04-22T10:22:05;20.20;22.61
43772;HTU21D;59066;54.782;32.024;2023-04-22T10:24:38;20.04;22.67
43772;HTU21D;59066;54.782;32.024;2023-04-22T10:27:09;20.01;22.67
43772;HTU21D;59066;54.782;32.024;2023-04-22T10:29:39;20.00;22.79
43772;HTU21D;59066;54.782;32.024;2023-04-22T10:34:48;20.02;22.95
43772;HTU21D;59066;54.782;32.024;2023-04-22T10:37:19;19.94;23.14
43772;HTU21D;59066;54.782;32.024;2023-04-22T10:40:24;19.85;23.05
43772;HTU21D;59066;54.782;32.024;2023-04-22T10:42:52;19.57;23.44
43772;HTU21D;59066;54.782;32.024;2023-04-22T10:45:23;19.61;23.40
43772;HTU21D;59066;54.782;32.024;2023-04-22T10:47:51;19.65;23.34
43772;HTU21D;59066;54.782;32.024;2023-04-22T10:55:51;19.81;23.05
43772;HTU21D;59066;54.782;32.024;2023-04-22T10:58:20;19.84;23.02
43772;HTU21D;59066;54.782;32.024;2023-04-22T11:00:51;19.92;22.87
43772;HTU21D;59066;54.782;32.024;2023-04-22T11:03:27;20.02;22.65
43772;HTU21D;59066;54.782;32.024;2023-04-22T11:06:15;20.16;22.58
43772;HTU21D;59066;54.782;32.024;2023-04-22T11:08:46;20.15;22.70
43772;HTU21D;59066;54.782;32.024;2023-04-22T11:11:17;20.31;22.68
43772;HTU21D;59066;54.782;32.024;2023-04-22T11:13:47;20.69;22.44
43772;HTU21D;59066;54.782;32.024;2023-04-22T11:16:20;21.08;22.18
43772;HTU21D;59066;54.782;32.024;2023-04-22T11:18:48;21.55;22.11
43772;HTU21D;59066;54.782;32.024;2023-04-22T11:21:17;21.68;21.74
43772;HTU21D;59066;54.782;32.024;2023-04-22T11:23:51;21.88;20.96
43772;HTU21D;59066;54.782;32.024;2023-04-22T11:26:32;22.10;20.37
43772;HTU21D;59066;54.782;32.024;2023-04-22T11:29:01;22.14;21.02
43772;HTU21D;59066;54.782;32.024;2023-04-22T11:31:28;22.25;21.05
43772;HTU21D;59066;54.782;32.024;2023-04-22T11:33:59;22.32;20.44
43772;HTU21D;59066;54.782;32.024;2023-04-22T11:36:26;22.34;20.44
43772;HTU21D;59066;54.782;32.024;2023-04-22T11:38:55;22.06;20.47
43772;HTU21D;59066;54.782;32.024;2023-04-22T11:41:22;21.95;20.45
43772;HTU21D;59066;54.782;32.024;2023-04-22T11:43:51;21.60;20.39
43772;HTU21D;59066;54.782;32.024;2023-04-22T11:46:29;21.42;20.50
43772;HTU21D;59066;54.782;32.024;2023-04-22T11:49:13;21.22;20.34
43772;HTU21D;59066;54.782;32.024;2023-04-22T11:51:52;21.21;20.60
43772;HTU21D;59066;54.782;32.024;2023-04-22T11:54:50;21.15;20.60
43772;HTU21D;59066;54.782;32.024;2023-04-22T11:57:17;21.09;20.71
43772;HTU21D;59066;54.782;32.024;2023-04-22T11:59:56;20.88;21.09
43772;HTU21D;59066;54.782;32.024;2023-04-22T12:02:25;20.93;21.10
43772;HTU21D;59066;54.782;32.024;2023-04-22T12:04:57;20.93;21.17
43772;HTU21D;59066;54.782;32.024;2023-04-22T12:07:28;20.98;21.31
43772;HTU21D;59066;54.782;32.024;2023-04-22T12:09:57;21.09;21.36
43772;HTU21D;59066;54.782;32.024;2023-04-22T12:12:25;21.39;21.29
43772;HTU21D;59066;54.782;32.024;2023-04-22T12:14:53;21.88;21.15
43772;HTU21D;59066;54.782;32.024;2023-04-22T12:17:23;22.52;20.62
43772;HTU21D;59066;54.782;32.024;2023-04-22T12:19:55;22.96;20.13
43772;HTU21D;59066;54.782;32.024;2023-04-22T12:22:26;23.17;20.09
43772;HTU21D;59066;54.782;32.024;2023-04-22T12:24:57;23.25;19.60
43772;HTU21D;59066;54.782;32.024;2023-04-22T12:27:25;23.39;19.57
43772;HTU21D;59066;54.782;32.024;2023-04-22T12:29:54;23.55;19.38
43772;HTU21D;59066;54.782;32.024;2023-04-22T12:32:24;23.80;19.05
43772;HTU21D;59066;54.782;32.024;2023-04-22T12:34:52;23.91;18.97
43772;HTU21D;59066;54.782;32.024;2023-04-22T12:37:20;23.73;18.86
43772;HTU21D;59066;54.782;32.024;2023-04-22T12:39:48;23.79;18.82
43772;HTU21D;59066;54.782;32.024;2023-04-22T12:42:15;23.98;18.58
43772;HTU21D;59066;54.782;32.024;2023-04-22T12:44:43;24.13;18.19
43772;HTU21D;59066;54.782;32.024;2023-04-22T12:47:10;23.82;18.00
43772;HTU21D;59066;54.782;32.024;2023-04-22T12:49:38;23.69;17.95
43772;HTU21D;59066;54.782;32.024;2023-04-22T12:52:06;23.64;17.90
43772;HTU21D;59066;54.782;32.024;2023-04-22T12:54:33;23.68;17.67
43772;HTU21D;59066;54.782;32.024;2023-04-22T12:57:01;23.66;17.78
43772;HTU21D;59066;54.782;32.024;2023-04-22T12:59:28;23.74;17.92
43772;HTU21D;59066;54.782;32.024;2023-04-22T13:01:56;24.08;17.83
43772;HTU21D;59066;54.782;32.024;2023-04-22T13:04:24;24.99;17.51
43772;HTU21D;59066;54.782;32.024;2023-04-22T13:06:51;25.40;17.08
43772;HTU21D;59066;54.782;32.024;2023-04-22T13:09:23;25.39;16.48
43772;HTU21D;59066;54.782;32.024;2023-04-22T13:11:52;25.46;16.95
43772;HTU21D;59066;54.782;32.024;2023-04-22T13:14:20;25.71;16.49
43772;HTU21D;59066;54.782;32.024;2023-04-22T13:16:53;25.43;16.45
43772;HTU21D;59066;54.782;32.024;2023-04-22T13:19:20;25.05;16.41
43772;HTU21D;59066;54.782;32.024;2023-04-22T13:21:52;24.70;16.45
43772;HTU21D;59066;54.782;32.024;2023-04-22T13:24:19;24.21;16.60
43772;HTU21D;59066;54.782;32.024;2023-04-22T13:26:48;23.76;16.90
43772;HTU21D;59066;54.782;32.024;2023-04-22T13:29:16;23.41;17.13
43772;HTU21D;59066;54.782;32.024;2023-04-22T13:31:44;23.20;17.25
43772;HTU21D;59066;54.782;32.024;2023-04-22T13:34:12;22.81;17.59
43772;HTU21D;59066;54.782;32.024;2023-04-22T13:36:41;22.47;17.83
43772;HTU21D;59066;54.782;32.024;2023-04-22T13:39:09;22.14;18.21
43772;HTU21D;59066;54.782;32.024;2023-04-22T13:41:36;21.95;18.37
43772;HTU21D;59066;54.782;32.024;2023-04-22T13:44:04;21.62;18.74
43772;HTU21D;59066;54.782;32.024;2023-04-22T13:46:32;21.43;18.96
43772;HTU21D;59066;54.782;32.024;2023-04-22T13:48:59;21.13;19.25
43772;HTU21D;59066;54.782;32.024;2023-04-22T13:51:27;20.96;19.51
43772;HTU21D;59066;54.782;32.024;2023-04-22T13:53:54;21.00;19.69
43772;HTU21D;59066;54.782;32.024;2023-04-22T13:56:22;20.93;19.79
43772;HTU21D;59066;54.782;32.024;2023-04-22T13:58:51;20.85;19.78
43772;HTU21D;59066;54.782;32.024;2023-04-22T14:01:20;21.21;19.76
43772;HTU21D;59066;54.782;32.024;2023-04-22T14:03:48;22.36;19.28
43772;HTU21D;59066;54.782;32.024;2023-04-22T14:06:16;23.55;18.98
43772;HTU21D;59066;54.782;32.024;2023-04-22T14:08:44;24.89;18.10
43772;HTU21D;59066;54.782;32.024;2023-04-22T14:11:12;26.06;17.25
43772;HTU21D;59066;54.782;32.024;2023-04-22T14:13:40;26.31;16.61
43772;HTU21D;59066;54.782;32.024;2023-04-22T14:16:08;25.95;16.19
43772;HTU21D;59066;54.782;32.024;2023-04-22T14:18:37;25.74;15.98
43772;HTU21D;59066;54.782;32.024;2023-04-22T14:21:07;25.71;15.62
43772;HTU21D;59066;54.782;32.024;2023-04-22T14:23:37;25.19;15.68
43772;HTU21D;59066;54.782;32.024;2023-04-22T14:26:07;24.75;15.84
43772;HTU21D;59066;54.782;32.024;2023-04-22T14:28:34;24.46;15.74
43772;HTU21D;59066;54.782;32.024;2023-04-22T14:31:06;24.08;15.71
43772;HTU21D;59066;54.782;32.024;2023-04-22T14:33:34;23.60;15.94
43772;HTU21D;59066;54.782;32.024;2023-04-22T14:36:02;23.26;16.32
43772;HTU21D;59066;54.782;32.024;2023-04-22T14:38:30;22.83;16.95
43772;HTU21D;59066;54.782;32.024;2023-04-22T14:40:57;22.57;17.25
43772;HTU21D;59066;54.782;32.024;2023-04-22T14:43:25;22.27;17.61
43772;HTU21D;59066;54.782;32.024;2023-04-22T14:45:52;21.92;17.99
43772;HTU21D;59066;54.782;32.024;2023-04-22T14:48:20;21.62;18.37
43772;HTU21D;59066;54.782;32.024;2023-04-22T14:50:51;21.36;18.80
43772;HTU21D;59066;54.782;32.024;2023-04-22T14:53:19;21.09;19.08
43772;HTU21D;59066;54.782;32.024;2023-04-22T14:55:46;20.80;19.34
43772;HTU21D;59066;54.782;32.024;2023-04-22T14:58:14;20.59;19.62
43772;HTU21D;59066;54.782;32.024;2023-04-22T15:00:41;20.47;19.86
43772;HTU21D;59066;54.782;32.024;2023-04-22T15:03:09;20.50;20.07
43772;HTU21D;59066;54.782;32.024;2023-04-22T15:05:37;21.11;20.11
43772;HTU21D;59066;54.782;32.024;2023-04-22T15:08:04;22.06;19.73
43772;HTU21D;59066;54.782;32.024;2023-04-22T15:10:33;22.95;19.16
43772;HTU21D;59066;54.782;32.024;2023-04-22T15:13:00;23.55;18.73
43772;HTU21D;59066;54.782;32.024;2023-04-22T15:15:28;24.03;18.51
43772;HTU21D;59066;54.782;32.024;2023-04-22T15:17:55;24.57;18.29
43772;HTU21D;59066;54.782;32.024;2023-04-22T15:20:23;24.69;17.96
43772;HTU21D;59066;54.782;32.024;2023-04-22T15:22:50;24.38;18.04
43772;HTU21D;59066;54.782;32.024;2023-04-22T15:25:18;24.13;18.09
43772;HTU21D;59066;54.782;32.024;2023-04-22T15:27:46;23.84;18.13